Knoxville, Illinois
Current Conditions -  °F | °C
As of 1:55 PM on Friday 19 Dec 2014 (Local Time) from KGBG Reporting Station
Clear Clear  
Wind Chill: 32°   Ceiling: Unl
Heat Index: 32°   Visibility: 10mi
Dew Point: 21°   Wind: 3mph
Humidity: 63%   Direction: 360°N
Pressure: 30.27"   Gusts: NA
Location:  40.91°N, 90.28°W
Report Text: KGBG 191955Z AUTO 36003KT 10SM CLR 00/M06 A3027 RMK AO2 T00001063
Loading
Personal Weather Stations






























Interactive Weather Map New forecast layout! Learn more

10-Day Weather Forecast

Advertisements
Track Severe Weather on mobile